createdAt,value
2017-11-03T00:04:52.282Z,11.65
2017-11-03T00:07:24.245Z,11.20
2017-11-03T00:15:37.263Z,9.40
2017-11-03T00:23:18.432Z,7.40
2017-11-03T00:25:46.106Z,7.17
2017-11-03T00:36:04.762Z,8.10
2017-11-03T00:38:33.223Z,7.60
2017-11-03T00:41:02.270Z,9.67
2017-11-03T00:43:29.959Z,9.97
2017-11-03T00:45:57.580Z,9.33
2017-11-03T00:48:25.216Z,9.73
2017-11-03T00:50:52.920Z,8.80
2017-11-03T00:53:20.548Z,8.67
2017-11-03T00:55:48.170Z,8.80
2017-11-03T00:58:15.859Z,8.30
2017-11-03T01:00:43.479Z,7.47
2017-11-03T01:03:11.105Z,6.60
2017-11-03T01:05:38.807Z,6.63
2017-11-03T01:08:06.431Z,5.63
2017-11-03T01:13:13.181Z,6.72
2017-11-03T01:15:41.298Z,7.50
2017-11-03T01:18:09.682Z,6.60
2017-11-03T01:20:37.387Z,7.50
2017-11-03T01:23:05.843Z,8.13
2017-11-03T01:25:33.472Z,6.63
2017-11-03T01:28:01.156Z,5.83
2017-11-03T01:30:29.249Z,5.90
2017-11-03T01:32:56.882Z,8.00
2017-11-03T01:35:24.579Z,7.10
2017-11-03T01:37:52.527Z,8.27
2017-11-03T01:40:19.831Z,8.67
2017-11-03T01:42:48.359Z,8.83
2017-11-03T01:45:15.985Z,10.13
2017-11-03T01:47:43.625Z,10.07
2017-11-03T01:50:11.321Z,9.20
2017-11-03T01:52:38.944Z,9.17
2017-11-03T01:55:11.464Z,8.53
2017-11-03T01:57:39.094Z,7.67
2017-11-03T02:00:06.717Z,7.37
2017-11-03T02:02:34.391Z,7.83
2017-11-03T02:05:02.013Z,8.87
2017-11-03T02:07:29.716Z,7.03
2017-11-03T02:12:36.406Z,9.40
2017-11-03T02:15:04.106Z,8.13
2017-11-03T02:17:32.676Z,6.53
2017-11-03T02:20:00.291Z,7.47
2017-11-03T02:22:27.981Z,9.07
2017-11-03T02:24:56.549Z,8.30
2017-11-03T02:27:24.172Z,9.80
2017-11-03T02:29:51.892Z,8.63
2017-11-03T02:32:19.531Z,9.13
2017-11-03T02:34:48.066Z,8.27
2017-11-03T02:37:15.574Z,9.23
2017-11-03T02:39:43.195Z,8.27
2017-11-03T02:42:11.653Z,8.60
2017-11-03T02:44:39.334Z,7.90
2017-11-03T02:47:08.395Z,7.80
2017-11-03T02:49:36.020Z,8.50
2017-11-03T02:52:03.721Z,9.50
2017-11-03T02:54:31.341Z,8.53
2017-11-03T02:56:58.963Z,9.53
2017-11-03T02:59:26.828Z,8.67
2017-11-03T03:01:55.215Z,8.87
2017-11-03T03:04:24.162Z,8.63
2017-11-03T03:06:51.832Z,8.30
2017-11-03T03:09:19.460Z,8.60
2017-11-03T03:11:47.319Z,8.60
2017-11-03T03:14:14.804Z,7.47
2017-11-03T03:19:21.119Z,8.98
2017-11-03T03:21:48.738Z,9.00
2017-11-03T03:24:16.364Z,8.57
2017-11-03T03:26:44.033Z,7.57
2017-11-03T03:29:12.516Z,8.20
2017-11-03T03:31:39.296Z,8.70
2017-11-03T03:34:06.981Z,8.13
2017-11-03T03:36:34.604Z,8.10
2017-11-03T03:39:02.241Z,8.70
2017-11-03T03:41:29.917Z,8.33
2017-11-03T03:43:57.895Z,7.80
2017-11-03T03:46:25.525Z,7.60
2017-11-03T03:48:53.229Z,8.17
2017-11-03T03:51:20.845Z,6.97
2017-11-03T03:53:49.297Z,6.83
2017-11-03T03:56:16.976Z,8.43
2017-11-03T03:58:45.561Z,8.60
2017-11-03T04:01:13.181Z,8.57
2017-11-03T04:03:40.865Z,8.93
2017-11-03T04:06:08.496Z,9.30
2017-11-03T04:08:36.125Z,9.00
2017-11-03T04:11:03.817Z,9.30
2017-11-03T04:13:31.444Z,8.53
2017-11-03T04:15:59.087Z,9.27
2017-11-03T04:18:28.623Z,9.13
2017-11-03T04:20:56.252Z,8.57
2017-11-03T04:23:23.865Z,8.77
2017-11-03T04:25:51.541Z,8.97
2017-11-03T04:28:19.162Z,8.73
2017-11-03T04:30:46.780Z,7.90
2017-11-03T04:33:14.470Z,8.03
2017-11-03T04:35:42.077Z,7.80
2017-11-03T04:38:09.707Z,7.80
2017-11-03T04:40:37.488Z,7.93
2017-11-03T04:43:05.490Z,7.47
2017-11-03T04:48:13.986Z,7.57
2017-11-03T04:50:41.612Z,6.53
2017-11-03T04:53:09.722Z,6.37
2017-11-03T04:55:37.385Z,5.17
2017-11-03T04:58:05.020Z,6.67
2017-11-03T05:00:32.644Z,7.50
2017-11-03T05:03:01.170Z,7.13
2017-11-03T05:05:28.787Z,7.60
2017-11-03T05:07:56.416Z,8.33
2017-11-03T05:10:24.214Z,8.43
2017-11-03T05:12:51.799Z,9.27
2017-11-03T05:15:19.979Z,11.30
2017-11-03T05:17:47.638Z,9.57
2017-11-03T05:20:15.286Z,11.23
2017-11-03T05:22:42.910Z,8.83
2017-11-03T05:25:10.587Z,9.33
2017-11-03T05:27:38.787Z,9.03
2017-11-03T05:30:06.432Z,8.50
2017-11-03T05:32:34.104Z,7.50
2017-11-03T05:35:01.730Z,7.57
2017-11-03T05:37:29.375Z,7.50
2017-11-03T05:39:57.052Z,7.47
2017-11-03T05:42:24.680Z,7.97
2017-11-03T05:44:52.314Z,7.43
2017-11-03T05:47:19.996Z,7.10
2017-11-03T05:49:47.627Z,6.87
2017-11-03T05:52:15.243Z,7.77
2017-11-03T05:54:42.944Z,7.10
2017-11-03T05:57:11.416Z,7.93
2017-11-03T05:59:39.668Z,7.77
2017-11-03T06:02:07.315Z,8.30
2017-11-03T06:04:35.197Z,9.30
2017-11-03T06:07:02.782Z,8.87
2017-11-03T06:09:30.712Z,8.40
2017-11-03T06:14:37.510Z,8.70
2017-11-03T06:17:05.116Z,8.63
2017-11-03T06:19:33.674Z,7.20
2017-11-03T06:22:01.352Z,8.37
2017-11-03T06:24:28.973Z,8.80
2017-11-03T06:26:57.579Z,9.27
2017-11-03T06:29:25.255Z,8.57
2017-11-03T06:31:52.884Z,7.90
2017-11-03T06:34:20.509Z,7.43
2017-11-03T06:36:48.203Z,7.77
2017-11-03T06:39:15.808Z,7.00
2017-11-03T06:41:43.609Z,6.23
2017-11-03T06:44:11.317Z,8.93
2017-11-03T06:46:38.938Z,7.93
2017-11-03T06:49:06.553Z,7.17
2017-11-03T06:51:34.263Z,6.97
2017-11-03T06:54:01.885Z,6.37
2017-11-03T06:56:29.509Z,7.30
2017-11-03T06:58:57.195Z,7.47
2017-11-03T07:01:24.828Z,6.47
2017-11-03T07:03:52.446Z,6.43
2017-11-03T07:06:20.127Z,7.27
2017-11-03T07:08:47.742Z,8.00
2017-11-03T07:11:15.379Z,8.77
2017-11-03T07:13:43.056Z,9.37
2017-11-03T07:16:10.679Z,8.90
2017-11-03T07:18:38.318Z,7.80
2017-11-03T07:21:06.006Z,8.17
2017-11-03T07:23:33.628Z,8.37
2017-11-03T07:26:01.254Z,7.87
2017-11-03T07:28:28.939Z,8.43
2017-11-03T07:30:56.566Z,9.03
2017-11-03T07:36:03.394Z,9.27
2017-11-03T07:38:31.000Z,8.33
2017-11-03T07:40:58.615Z,9.13
2017-11-03T07:43:26.298Z,8.63
2017-11-03T07:45:53.916Z,8.90
2017-11-03T07:48:21.552Z,9.17
2017-11-03T07:50:49.230Z,7.90
2017-11-03T07:53:16.853Z,8.10
2017-11-03T07:55:44.470Z,8.80
2017-11-03T07:58:12.151Z,8.13
2017-11-03T08:00:39.793Z,7.47
2017-11-03T08:03:07.420Z,7.07
2017-11-03T08:05:35.235Z,6.77
2017-11-03T08:08:02.821Z,6.70
2017-11-03T08:10:30.460Z,6.97
2017-11-03T08:12:58.140Z,7.83
2017-11-03T08:18:06.068Z,8.82
2017-11-03T08:23:14.135Z,9.57
2017-11-03T08:25:42.593Z,8.83
2017-11-03T08:28:10.217Z,8.30
2017-11-03T08:30:37.919Z,8.43
2017-11-03T08:33:05.548Z,8.40
2017-11-03T08:35:33.176Z,8.23
2017-11-03T08:38:01.671Z,8.50
2017-11-03T08:40:29.296Z,9.40
2017-11-03T08:42:56.923Z,9.27
2017-11-03T08:45:24.620Z,10.63
2017-11-03T08:47:52.263Z,9.87
2017-11-03T08:50:19.907Z,10.00
2017-11-03T08:52:47.595Z,10.23
2017-11-03T08:55:15.219Z,9.37
2017-11-03T08:57:42.845Z,11.60
2017-11-03T09:00:10.546Z,10.77
2017-11-03T09:02:38.168Z,11.47
2017-11-03T09:05:05.813Z,12.17
2017-11-03T09:07:33.534Z,13.00
2017-11-03T09:10:01.170Z,14.27
2017-11-03T09:12:28.796Z,14.20
2017-11-03T09:14:56.501Z,14.47
2017-11-03T09:17:24.136Z,12.10
2017-11-03T09:19:51.756Z,14.80
2017-11-03T09:22:19.453Z,15.17
2017-11-03T09:24:47.091Z,14.60
2017-11-03T09:27:14.747Z,16.70
2017-11-03T09:29:42.428Z,16.13
2017-11-03T09:32:10.060Z,15.23
2017-11-03T09:34:37.693Z,15.63
2017-11-03T09:37:05.384Z,16.10
2017-11-03T09:39:33.034Z,14.77
2017-11-03T09:42:00.663Z,14.37
2017-11-03T09:47:07.439Z,18.87
2017-11-03T09:49:36.092Z,15.97
2017-11-03T09:52:03.729Z,15.30
2017-11-03T09:54:31.375Z,14.47
2017-11-03T09:56:59.077Z,15.63
2017-11-03T09:59:26.705Z,15.77
2017-11-03T10:01:54.338Z,15.93
2017-11-03T10:04:22.036Z,16.50
2017-11-03T10:06:49.670Z,14.63
2017-11-03T10:09:17.333Z,16.53
2017-11-03T10:11:45.843Z,15.70
2017-11-03T10:14:13.489Z,15.67
2017-11-03T10:16:41.112Z,14.30
2017-11-03T10:19:08.787Z,15.20
2017-11-03T10:21:36.422Z,15.93
2017-11-03T10:24:04.053Z,15.27
2017-11-03T10:26:31.748Z,13.10
2017-11-03T10:28:59.424Z,13.93
2017-11-03T10:31:27.141Z,14.70
2017-11-03T10:33:54.734Z,12.87
2017-11-03T10:36:22.366Z,15.37
2017-11-03T10:38:50.004Z,14.53
2017-11-03T10:41:17.687Z,13.10
2017-11-03T10:43:45.453Z,14.47
2017-11-03T10:46:12.943Z,15.37
2017-11-03T10:48:40.622Z,13.13
2017-11-03T10:51:08.253Z,11.90
2017-11-03T10:53:35.878Z,12.60
2017-11-03T10:56:03.568Z,11.83
2017-11-03T10:58:31.221Z,13.70
2017-11-03T11:03:38.004Z,13.52
2017-11-03T11:06:05.634Z,14.83
2017-11-03T11:08:33.288Z,13.00
2017-11-03T11:11:00.969Z,13.13
2017-11-03T11:13:28.592Z,12.80
2017-11-03T11:15:56.231Z,12.57
2017-11-03T11:18:23.916Z,13.13
2017-11-03T11:20:51.548Z,13.13
2017-11-03T11:23:19.172Z,12.43
2017-11-03T11:25:46.859Z,12.20
2017-11-03T11:28:14.524Z,10.57
2017-11-03T11:30:42.160Z,10.17
2017-11-03T11:33:09.844Z,11.00
2017-11-03T11:35:37.493Z,11.67
2017-11-03T11:38:06.072Z,12.63
2017-11-03T11:40:33.770Z,13.30
2017-11-03T11:43:01.406Z,13.23
2017-11-03T11:45:29.036Z,12.43
2017-11-03T11:47:57.104Z,12.20
2017-11-03T11:50:24.666Z,13.53
2017-11-03T11:52:52.291Z,12.43
2017-11-03T11:55:20.809Z,11.87
2017-11-03T11:57:48.436Z,10.87
2017-11-03T12:00:17.366Z,12.20
2017-11-03T12:02:45.051Z,10.17
2017-11-03T12:05:12.676Z,8.37
2017-11-03T12:07:40.305Z,9.90
2017-11-03T12:10:08.005Z,8.13
2017-11-03T12:12:35.638Z,8.43
2017-11-03T12:15:03.261Z,8.90
2017-11-03T12:17:30.938Z,10.67
2017-11-03T12:19:58.570Z,11.10
2017-11-03T12:25:05.377Z,14.57
2017-11-03T12:27:33.003Z,14.27
2017-11-03T12:30:00.624Z,12.87
2017-11-03T12:32:28.310Z,14.47
2017-11-03T12:34:55.937Z,12.70
2017-11-03T12:37:23.569Z,12.13
2017-11-03T12:39:51.248Z,13.30
2017-11-03T12:42:18.879Z,11.67
2017-11-03T12:44:46.512Z,11.47
2017-11-03T12:47:14.225Z,11.20
2017-11-03T12:49:41.854Z,10.57
2017-11-03T12:52:09.767Z,10.40
2017-11-03T12:54:37.805Z,11.30
2017-11-03T12:57:05.403Z,11.10
2017-11-03T12:59:33.023Z,10.53
2017-11-03T13:02:00.708Z,11.23
2017-11-03T13:04:28.331Z,11.13
2017-11-03T13:06:55.969Z,11.60
2017-11-03T13:09:23.662Z,12.67
2017-11-03T13:11:51.281Z,12.13
2017-11-03T13:14:18.911Z,12.47
2017-11-03T13:16:46.600Z,12.67
2017-11-03T13:19:14.228Z,12.37
2017-11-03T13:21:41.864Z,12.33
2017-11-03T13:24:09.569Z,12.63
2017-11-03T13:26:37.203Z,13.43
2017-11-03T13:29:04.826Z,13.53
2017-11-03T13:31:32.509Z,13.93
2017-11-03T13:34:00.151Z,12.97
2017-11-03T13:36:27.784Z,12.13
2017-11-03T13:38:55.470Z,13.10
2017-11-03T13:41:23.104Z,12.80
2017-11-03T13:43:50.728Z,12.43
2017-11-03T13:48:57.512Z,13.50
2017-11-03T13:51:26.164Z,13.00
2017-11-03T13:53:53.793Z,11.43
2017-11-03T13:56:21.422Z,11.80
2017-11-03T13:58:49.111Z,12.50
2017-11-03T14:01:16.740Z,11.77
2017-11-03T14:03:44.367Z,11.37
2017-11-03T14:06:12.075Z,11.03
2017-11-03T14:08:39.689Z,10.70
2017-11-03T14:11:07.310Z,10.50
2017-11-03T14:13:34.996Z,9.43
2017-11-03T14:16:02.619Z,9.37
2017-11-03T14:18:30.245Z,8.97
2017-11-03T14:20:57.923Z,8.20
2017-11-03T14:23:25.552Z,8.57
2017-11-03T14:25:53.170Z,8.30
2017-11-03T14:28:20.856Z,7.63
2017-11-03T14:30:48.496Z,7.47
2017-11-03T14:33:16.150Z,7.23
2017-11-03T14:35:43.852Z,7.53
2017-11-03T14:38:11.508Z,7.37
2017-11-03T14:40:39.156Z,6.87
2017-11-03T14:43:06.892Z,6.43
2017-11-03T14:45:34.525Z,6.20
2017-11-03T14:48:02.168Z,6.20
2017-11-03T14:50:29.841Z,6.03
2017-11-03T14:52:57.471Z,5.73
2017-11-03T14:55:25.092Z,6.03
2017-11-03T14:57:52.764Z,6.60
2017-11-03T15:00:20.413Z,5.90
2017-11-03T15:02:48.040Z,5.97
2017-11-03T15:05:16.685Z,5.77
2017-11-03T15:07:44.313Z,5.30
2017-11-03T15:10:11.939Z,5.40
2017-11-03T15:15:20.711Z,6.40
2017-11-03T15:17:48.384Z,5.40
2017-11-03T15:20:16.998Z,5.67
2017-11-03T15:22:44.628Z,6.27
2017-11-03T15:25:12.327Z,5.47
2017-11-03T15:27:39.949Z,6.10
2017-11-03T15:30:07.578Z,5.90
2017-11-03T15:32:35.269Z,5.87
2017-11-03T15:35:02.901Z,6.47
2017-11-03T15:37:30.527Z,6.60
2017-11-03T15:39:59.179Z,5.77
2017-11-03T15:42:26.832Z,6.53
2017-11-03T15:44:54.445Z,5.90
2017-11-03T15:47:22.128Z,6.50
2017-11-03T15:49:49.757Z,7.53
2017-11-03T15:52:17.395Z,7.60
2017-11-03T15:54:45.938Z,6.70
2017-11-03T15:57:14.415Z,7.03
2017-11-03T15:59:42.040Z,7.17
2017-11-03T16:02:09.732Z,6.50
2017-11-03T16:04:37.357Z,7.10
2017-11-03T16:07:04.986Z,7.10
2017-11-03T16:09:32.688Z,7.10
2017-11-03T16:12:00.332Z,6.63
2017-11-03T16:14:28.808Z,6.97
2017-11-03T16:17:00.392Z,8.47
2017-11-03T16:19:26.649Z,9.07
2017-11-03T16:21:54.285Z,8.07
2017-11-03T16:24:21.982Z,9.10
2017-11-03T16:26:49.626Z,52.07
2017-11-03T16:29:17.261Z,17.63
2017-11-03T16:31:44.953Z,15.87
2017-11-03T16:34:12.584Z,16.40
2017-11-03T16:36:40.214Z,23.00
2017-11-03T16:39:07.905Z,23.20
2017-11-03T16:44:11.683Z,19.70
2017-11-03T16:46:39.303Z,18.87
2017-11-03T16:49:06.935Z,16.47
2017-11-03T16:51:34.624Z,15.93
2017-11-03T16:54:02.254Z,13.87
2017-11-03T16:56:29.880Z,11.63
2017-11-03T16:58:57.573Z,11.57
2017-11-03T17:01:25.194Z,11.03
2017-11-03T17:03:52.823Z,11.30
2017-11-03T17:06:20.513Z,10.17
2017-11-03T17:08:48.152Z,10.10
2017-11-03T17:11:15.795Z,9.50
2017-11-03T17:13:43.480Z,10.20
2017-11-03T17:16:11.099Z,9.17
2017-11-03T17:18:38.734Z,9.27
2017-11-03T17:21:06.444Z,10.53
2017-11-03T17:23:34.124Z,11.17
2017-11-03T17:26:01.750Z,10.63
2017-11-03T17:28:30.827Z,11.60
2017-11-03T17:30:58.461Z,12.03
2017-11-03T17:33:26.096Z,12.57
2017-11-03T17:35:53.780Z,11.57
2017-11-03T17:38:21.407Z,9.50
2017-11-03T17:40:49.031Z,9.47
2017-11-03T17:43:17.086Z,10.23
2017-11-03T17:45:44.713Z,12.67
2017-11-03T17:48:12.349Z,10.73
2017-11-03T17:50:40.037Z,10.60
2017-11-03T17:53:08.397Z,18.53
2017-11-03T17:55:36.026Z,12.03
2017-11-03T17:58:03.717Z,18.33
2017-11-03T18:00:31.362Z,10.70
2017-11-03T18:02:59.026Z,10.53
2017-11-03T18:08:06.981Z,18.20
2017-11-03T18:10:34.692Z,18.93
2017-11-03T18:13:02.335Z,19.13
2017-11-03T18:15:29.985Z,10.70
2017-11-03T18:17:57.711Z,12.50
2017-11-03T18:20:25.354Z,11.83
2017-11-03T18:22:52.992Z,13.00
2017-11-03T18:25:20.685Z,13.00
2017-11-03T18:27:49.043Z,13.37
2017-11-03T18:30:17.232Z,11.40
2017-11-03T18:32:45.307Z,12.90
2017-11-03T18:35:13.522Z,11.07
2017-11-03T18:37:41.174Z,11.00
2017-11-03T18:40:09.845Z,9.90
2017-11-03T18:42:37.515Z,10.97
2017-11-03T18:47:43.809Z,9.77
2017-11-03T18:50:12.442Z,8.67
2017-11-03T18:52:41.480Z,8.20
2017-11-03T18:55:09.234Z,9.03
2017-11-03T18:57:36.863Z,8.13
2017-11-03T19:00:04.537Z,8.50
2017-11-03T19:02:32.153Z,15.03
2017-11-03T19:05:01.344Z,23.37
2017-11-03T19:07:29.035Z,22.60
2017-11-03T19:09:57.603Z,9.87
2017-11-03T19:12:25.210Z,9.70
2017-11-03T19:14:52.927Z,12.23
2017-11-03T19:17:20.571Z,12.13
2017-11-03T19:19:48.201Z,13.13
2017-11-03T19:22:15.889Z,15.37
2017-11-03T19:27:22.685Z,16.02
2017-11-03T19:29:50.316Z,12.40
2017-11-03T19:32:17.983Z,12.10
2017-11-03T19:34:45.687Z,12.60
2017-11-03T19:37:13.334Z,11.73
2017-11-03T19:39:40.976Z,12.83
2017-11-03T19:42:08.702Z,12.40
2017-11-03T19:44:36.334Z,12.07
2017-11-03T19:47:03.975Z,10.60
2017-11-03T19:49:31.673Z,12.43
2017-11-03T19:51:59.310Z,12.37
2017-11-03T19:54:26.944Z,12.27
2017-11-03T19:56:54.633Z,12.90
2017-11-03T19:59:22.271Z,12.67
2017-11-03T20:01:49.896Z,12.17
2017-11-03T20:04:17.628Z,11.80
2017-11-03T20:06:45.281Z,11.60
2017-11-03T20:09:12.951Z,15.47
2017-11-03T20:11:40.645Z,15.20
2017-11-03T20:14:08.275Z,10.90
2017-11-03T20:16:38.250Z,11.40
2017-11-03T20:19:04.698Z,12.30
2017-11-03T20:21:32.356Z,12.60
2017-11-03T20:24:02.849Z,15.23
2017-11-03T20:26:30.458Z,14.40
2017-11-03T20:28:58.107Z,12.80
2017-11-03T20:31:25.761Z,12.67
2017-11-03T20:33:53.619Z,13.07
2017-11-03T20:36:21.265Z,16.40
2017-11-03T20:38:48.905Z,17.17
2017-11-03T20:41:16.596Z,13.73
2017-11-03T20:43:44.249Z,13.07
2017-11-03T20:46:11.878Z,13.03
2017-11-03T20:48:41.730Z,12.53
2017-11-03T20:53:49.282Z,17.85
2017-11-03T20:56:16.919Z,15.20
2017-11-03T20:58:44.567Z,14.03
2017-11-03T21:01:13.444Z,13.17
2017-11-03T21:03:41.031Z,13.17
2017-11-03T21:06:08.663Z,12.47
2017-11-03T21:08:36.364Z,14.20
2017-11-03T21:11:03.996Z,13.40
2017-11-03T21:13:31.641Z,11.90
2017-11-03T21:15:59.360Z,11.73
2017-11-03T21:21:06.271Z,16.77
2017-11-03T21:23:33.925Z,12.90
2017-11-03T21:26:01.592Z,13.13
2017-11-03T21:28:30.256Z,13.57
2017-11-03T21:30:57.929Z,12.93
2017-11-03T21:33:26.021Z,12.27
2017-11-03T21:35:53.697Z,12.80
2017-11-03T21:38:22.886Z,12.57
2017-11-03T21:40:53.432Z,13.43
2017-11-03T21:43:20.585Z,13.40
2017-11-03T21:45:48.167Z,12.53
2017-11-03T21:48:15.926Z,12.90
2017-11-03T21:50:44.129Z,13.87
2017-11-03T21:58:35.842Z,17.15
2017-11-03T22:01:04.596Z,14.90
2017-11-03T22:03:32.348Z,12.80
2017-11-03T22:06:00.264Z,13.33
2017-11-03T22:11:11.959Z,14.90
2017-11-03T22:13:39.660Z,14.93
2017-11-03T22:16:07.301Z,14.67
2017-11-03T22:21:08.766Z,13.87
2017-11-03T22:23:36.380Z,14.63
2017-11-03T22:26:04.013Z,14.20
2017-11-03T22:28:31.700Z,14.23
2017-11-03T22:30:59.347Z,15.03
2017-11-03T22:33:26.959Z,15.30
2017-11-03T22:35:54.666Z,14.17
2017-11-03T22:38:22.311Z,12.60
2017-11-03T22:40:49.937Z,13.60
2017-11-03T22:43:17.634Z,12.87
2017-11-03T22:45:45.859Z,12.93
2017-11-03T22:48:14.254Z,12.77
2017-11-03T22:50:42.087Z,12.73
2017-11-03T22:53:09.766Z,13.93
2017-11-03T22:55:37.973Z,13.63
2017-11-03T22:58:05.677Z,12.33
2017-11-03T23:00:34.705Z,12.23
2017-11-03T23:03:02.331Z,12.80
2017-11-03T23:05:32.713Z,11.00
2017-11-03T23:07:59.028Z,13.73
2017-11-03T23:10:27.667Z,12.90
2017-11-03T23:13:01.469Z,13.83
2017-11-03T23:20:50.266Z,15.27
2017-11-03T23:23:18.480Z,12.43
2017-11-03T23:25:47.161Z,11.63
2017-11-03T23:28:15.333Z,11.60
2017-11-03T23:30:43.047Z,11.20
2017-11-03T23:33:10.681Z,10.23
2017-11-03T23:35:40.029Z,12.50
2017-11-03T23:38:07.631Z,9.80
2017-11-03T23:40:35.292Z,12.20
2017-11-03T23:43:02.905Z,11.03
2017-11-03T23:45:30.608Z,11.30
2017-11-03T23:47:58.237Z,11.13
2017-11-03T23:50:25.855Z,11.37
2017-11-03T23:52:53.540Z,11.73
2017-11-03T23:55:21.207Z,11.77
2017-11-03T23:57:48.800Z,10.90
